createdAt,value
2023-02-18T00:01:25.428Z,1.50
2023-02-18T00:03:52.213Z,0.90
2023-02-18T00:06:23.307Z,1.00
2023-02-18T00:08:50.432Z,1.00
2023-02-18T00:11:18.344Z,0.80
2023-02-18T00:13:53.340Z,1.10
2023-02-18T00:16:21.159Z,0.90
2023-02-18T00:18:47.803Z,0.80
2023-02-18T00:21:14.463Z,0.80
2023-02-18T00:23:43.621Z,0.70
2023-02-18T00:26:13.192Z,1.00
2023-02-18T00:28:40.646Z,0.70
2023-02-18T00:31:09.068Z,0.80
2023-02-18T00:33:35.768Z,0.80
2023-02-18T00:36:08.541Z,1.00
2023-02-18T00:38:35.719Z,0.90
2023-02-18T00:41:02.543Z,0.90
2023-02-18T00:43:29.233Z,0.80
2023-02-18T00:45:55.631Z,1.20
2023-02-18T00:48:22.536Z,1.10
2023-02-18T00:50:48.879Z,0.60
2023-02-18T00:53:15.205Z,0.90
2023-02-18T00:55:43.459Z,0.60
2023-02-18T00:58:10.679Z,0.70
2023-02-18T01:00:37.708Z,0.90
2023-02-18T01:03:05.699Z,1.00
2023-02-18T01:05:32.313Z,0.70
2023-02-18T01:07:58.945Z,1.00
2023-02-18T01:10:25.446Z,1.00
2023-02-18T01:12:52.121Z,0.60
2023-02-18T01:15:18.847Z,0.80
2023-02-18T01:17:45.166Z,1.20
2023-02-18T01:20:13.233Z,1.00
2023-02-18T01:22:40.083Z,0.70
2023-02-18T01:25:07.934Z,1.00
2023-02-18T01:27:34.251Z,1.10
2023-02-18T01:30:02.431Z,1.10
2023-02-18T01:32:28.800Z,1.20
2023-02-18T01:34:55.068Z,1.10
2023-02-18T01:37:21.418Z,0.90
2023-02-18T01:39:47.851Z,0.70
2023-02-18T01:42:26.740Z,0.60
2023-02-18T01:44:53.786Z,0.90
2023-02-18T01:47:21.083Z,0.70
2023-02-18T01:49:52.076Z,0.70
2023-02-18T01:52:23.548Z,1.00
2023-02-18T01:54:54.931Z,0.60
2023-02-18T01:57:34.637Z,0.60
2023-02-18T02:00:07.486Z,1.10
2023-02-18T02:02:44.879Z,0.60
2023-02-18T02:05:12.145Z,0.80
2023-02-18T02:07:40.901Z,1.10
2023-02-18T02:10:10.303Z,1.70
2023-02-18T02:12:55.357Z,0.90
2023-02-18T02:15:25.519Z,1.00
2023-02-18T02:18:19.968Z,0.70
2023-02-18T02:21:09.237Z,1.00
2023-02-18T02:23:54.272Z,1.20
2023-02-18T02:26:49.450Z,0.70
2023-02-18T02:29:52.964Z,1.10
2023-02-18T02:32:40.363Z,1.30
2023-02-18T02:35:09.587Z,0.50
2023-02-18T02:37:47.688Z,0.80
2023-02-18T02:40:32.655Z,1.20
2023-02-18T02:43:25.537Z,0.50
2023-02-18T02:45:58.638Z,0.40
2023-02-18T02:48:36.386Z,0.90
2023-02-18T02:51:15.239Z,1.20
2023-02-18T02:53:43.077Z,0.80
2023-02-18T02:56:14.947Z,0.70
2023-02-18T02:58:42.704Z,1.10
2023-02-18T03:01:40.030Z,1.00
2023-02-18T03:04:31.410Z,0.60
2023-02-18T03:07:13.827Z,1.10
2023-02-18T03:10:09.377Z,0.70
2023-02-18T03:12:46.511Z,0.70
2023-02-18T03:15:22.581Z,1.30
2023-02-18T03:20:39.007Z,1.20
2023-02-18T03:23:11.056Z,0.90
2023-02-18T03:25:38.918Z,0.90
2023-02-18T03:28:11.216Z,1.10
2023-02-18T03:30:43.961Z,0.80
2023-02-18T03:33:16.486Z,0.80
2023-02-18T03:35:45.000Z,0.80
2023-02-18T03:38:33.917Z,0.70
2023-02-18T03:41:03.964Z,0.50
2023-02-18T03:43:30.721Z,0.80
2023-02-18T03:45:58.118Z,0.70
2023-02-18T03:48:25.464Z,0.90
2023-02-18T03:50:51.899Z,0.80
2023-02-18T03:53:18.427Z,0.80
2023-02-18T03:55:45.042Z,0.80
2023-02-18T03:58:11.289Z,0.80
2023-02-18T04:00:37.607Z,1.00
2023-02-18T04:03:03.962Z,0.90
2023-02-18T04:05:30.566Z,0.70
2023-02-18T04:07:56.805Z,1.10
2023-02-18T04:10:23.152Z,0.60
2023-02-18T04:12:49.383Z,0.90
2023-02-18T04:15:15.919Z,1.00
2023-02-18T04:17:42.307Z,1.50
2023-02-18T04:20:09.151Z,1.00
2023-02-18T04:22:35.372Z,0.80
2023-02-18T04:25:01.653Z,0.90
2023-02-18T04:27:27.911Z,0.90
2023-02-18T04:29:54.395Z,1.00
2023-02-18T04:32:20.685Z,0.80
2023-02-18T04:34:47.035Z,0.50
2023-02-18T04:37:13.309Z,1.00
2023-02-18T04:39:39.641Z,0.90
2023-02-18T04:42:08.231Z,0.50
2023-02-18T04:44:36.560Z,1.10
2023-02-18T04:47:04.716Z,0.80
2023-02-18T04:49:31.144Z,1.10
2023-02-18T04:51:57.735Z,1.20
2023-02-18T04:54:23.986Z,1.30
2023-02-18T04:56:50.287Z,0.70
2023-02-18T04:59:16.817Z,1.00
2023-02-18T05:01:43.091Z,0.80
2023-02-18T05:04:09.479Z,1.20
2023-02-18T05:06:38.752Z,0.90
2023-02-18T05:09:06.094Z,0.80
2023-02-18T05:11:32.323Z,0.70
2023-02-18T05:13:58.579Z,0.90
2023-02-18T05:16:24.927Z,0.90
2023-02-18T05:18:51.405Z,1.10
2023-02-18T05:21:17.801Z,1.40
2023-02-18T05:23:44.157Z,0.70
2023-02-18T05:26:10.644Z,0.90
2023-02-18T05:28:37.216Z,0.80
2023-02-18T05:31:03.724Z,0.70
2023-02-18T05:33:30.002Z,0.90
2023-02-18T05:35:56.321Z,0.90
2023-02-18T05:38:23.061Z,1.00
2023-02-18T05:40:49.334Z,0.70
2023-02-18T05:43:15.726Z,1.20
2023-02-18T05:45:42.021Z,1.20
2023-02-18T05:48:08.601Z,0.90
2023-02-18T05:50:35.489Z,1.00
2023-02-18T05:53:01.845Z,0.90
2023-02-18T05:55:28.100Z,1.10
2023-02-18T05:57:54.501Z,1.30
2023-02-18T06:00:20.957Z,1.20
2023-02-18T06:02:47.447Z,0.80
2023-02-18T06:05:13.789Z,1.60
2023-02-18T06:07:40.120Z,1.20
2023-02-18T06:10:07.095Z,1.20
2023-02-18T06:12:33.424Z,0.60
2023-02-18T06:14:59.741Z,1.30
2023-02-18T06:17:26.174Z,1.20
2023-02-18T06:19:52.570Z,0.80
2023-02-18T06:22:18.920Z,1.00
2023-02-18T06:24:45.383Z,1.00
2023-02-18T06:27:11.717Z,1.40
2023-02-18T06:29:38.023Z,0.90
2023-02-18T06:32:04.681Z,1.10
2023-02-18T06:34:31.250Z,0.60
2023-02-18T06:36:57.465Z,1.20
2023-02-18T06:39:23.740Z,1.40
2023-02-18T06:41:49.990Z,1.10
2023-02-18T06:44:16.836Z,1.30
2023-02-18T06:46:44.088Z,1.20
2023-02-18T06:49:10.573Z,1.10
2023-02-18T06:51:36.909Z,0.90
2023-02-18T06:54:05.064Z,1.00
2023-02-18T06:56:31.577Z,1.10
2023-02-18T06:58:58.164Z,1.20
2023-02-18T07:01:24.474Z,1.10
2023-02-18T07:03:50.803Z,1.70
2023-02-18T07:06:17.231Z,0.70
2023-02-18T07:08:43.595Z,1.10
2023-02-18T07:11:09.846Z,1.00
2023-02-18T07:13:36.296Z,0.70
2023-02-18T07:16:02.646Z,0.70
2023-02-18T07:18:29.059Z,0.90
2023-02-18T07:20:55.363Z,0.70
2023-02-18T07:23:21.688Z,1.20
2023-02-18T07:25:47.955Z,1.30
2023-02-18T07:28:14.415Z,0.90
2023-02-18T07:30:40.717Z,1.20
2023-02-18T07:33:07.410Z,1.00
2023-02-18T07:35:33.776Z,0.60
2023-02-18T07:38:02.203Z,1.10
2023-02-18T07:40:28.673Z,1.60
2023-02-18T07:42:55.064Z,1.30
2023-02-18T07:45:21.475Z,1.10
2023-02-18T07:47:47.726Z,0.90
2023-02-18T07:50:14.042Z,1.10
2023-02-18T07:52:40.421Z,1.40
2023-02-18T07:55:07.287Z,1.30
2023-02-18T07:57:53.745Z,1.00
2023-02-18T08:00:20.373Z,1.10
2023-02-18T08:02:46.605Z,1.40
2023-02-18T08:05:12.923Z,1.20
2023-02-18T08:07:39.753Z,1.20
2023-02-18T08:10:06.732Z,0.70
2023-02-18T08:12:33.388Z,1.50
2023-02-18T08:14:59.696Z,1.70
2023-02-18T08:17:26.215Z,0.80
2023-02-18T08:19:52.800Z,1.10
2023-02-18T08:22:19.093Z,1.20
2023-02-18T08:24:45.461Z,1.30
2023-02-18T08:27:12.686Z,1.30
2023-02-18T08:29:38.966Z,1.50
2023-02-18T08:32:05.297Z,1.10
2023-02-18T08:34:31.804Z,1.10
2023-02-18T08:36:58.180Z,1.30
2023-02-18T08:39:24.553Z,0.90
2023-02-18T08:41:51.026Z,1.40
2023-02-18T08:44:20.109Z,1.30
2023-02-18T08:46:48.454Z,1.60
2023-02-18T08:49:14.744Z,1.40
2023-02-18T08:51:41.174Z,1.80
2023-02-18T08:54:07.426Z,1.10
2023-02-18T08:56:33.744Z,1.10
2023-02-18T08:59:00.124Z,1.10
2023-02-18T09:01:26.580Z,0.90
2023-02-18T09:03:53.311Z,1.10
2023-02-18T09:06:20.263Z,1.20
2023-02-18T09:08:47.276Z,1.50
2023-02-18T09:11:13.702Z,1.70
2023-02-18T09:13:40.552Z,1.00
2023-02-18T09:16:11.506Z,1.10
2023-02-18T09:18:38.304Z,1.10
2023-02-18T09:21:08.765Z,1.00
2023-02-18T09:23:35.997Z,1.30
2023-02-18T09:26:08.063Z,1.30
2023-02-18T09:28:35.807Z,1.10
2023-02-18T09:31:15.521Z,0.90
2023-02-18T09:33:46.143Z,2.20
2023-02-18T09:36:13.408Z,1.30
2023-02-18T09:38:40.300Z,1.10
2023-02-18T09:41:21.755Z,1.10
2023-02-18T09:43:51.473Z,0.90
2023-02-18T09:49:14.915Z,1.00
2023-02-18T09:51:41.928Z,1.00
2023-02-18T09:54:15.113Z,1.10
2023-02-18T09:56:43.709Z,0.90
2023-02-18T09:59:17.761Z,1.80
2023-02-18T10:01:47.613Z,1.30
2023-02-18T10:04:18.594Z,1.50
2023-02-18T10:06:47.447Z,1.10
2023-02-18T10:09:34.789Z,1.30
2023-02-18T10:12:14.753Z,1.20
2023-02-18T10:14:43.749Z,1.10
2023-02-18T10:17:15.898Z,1.20
2023-02-18T10:19:45.351Z,1.70
2023-02-18T10:22:15.180Z,0.80
2023-02-18T10:24:58.820Z,1.90
2023-02-18T10:27:28.563Z,1.30
2023-02-18T10:30:32.311Z,1.50
2023-02-18T10:33:26.380Z,1.30
2023-02-18T10:36:00.284Z,1.30
2023-02-18T10:38:59.027Z,1.20
2023-02-18T10:41:36.721Z,1.20
2023-02-18T10:44:10.507Z,1.20
2023-02-18T10:46:55.699Z,1.70
2023-02-18T10:49:53.302Z,1.30
2023-02-18T10:52:20.453Z,1.10
2023-02-18T10:54:48.144Z,1.50
2023-02-18T10:57:23.172Z,1.50
2023-02-18T10:59:59.455Z,2.60
2023-02-18T11:02:30.954Z,1.30
2023-02-18T11:05:03.101Z,1.70
2023-02-18T11:07:34.078Z,1.00
2023-02-18T11:10:14.472Z,1.60
2023-02-18T11:13:00.336Z,1.40
2023-02-18T11:15:28.250Z,1.50
2023-02-18T11:18:13.021Z,1.30
2023-02-18T11:20:39.749Z,1.10
2023-02-18T11:23:05.956Z,1.40
2023-02-18T11:25:38.462Z,0.80
2023-02-18T11:28:22.485Z,1.20
2023-02-18T11:30:55.356Z,1.60
2023-02-18T11:33:39.458Z,1.40
2023-02-18T11:36:19.306Z,1.30
2023-02-18T11:38:58.252Z,1.10
2023-02-18T11:41:37.938Z,1.50
2023-02-18T11:44:07.133Z,1.10
2023-02-18T11:46:33.621Z,1.50
2023-02-18T11:49:21.831Z,1.20
2023-02-18T11:51:49.908Z,1.50
2023-02-18T11:54:29.963Z,1.20
2023-02-18T11:57:06.092Z,1.10
2023-02-18T11:59:35.646Z,1.40
2023-02-18T12:04:47.734Z,0.80
2023-02-18T12:07:23.107Z,1.50
2023-02-18T12:09:54.280Z,1.00
2023-02-18T12:12:43.503Z,1.20
2023-02-18T12:15:17.739Z,1.00
2023-02-18T12:18:20.593Z,1.70
2023-02-18T12:21:22.133Z,1.70
2023-02-18T12:23:57.438Z,1.60
2023-02-18T12:27:11.538Z,1.30
2023-02-18T12:29:59.046Z,1.00
2023-02-18T12:32:34.485Z,1.00
2023-02-18T12:35:18.919Z,1.20
2023-02-18T12:38:33.399Z,1.30
2023-02-18T12:41:11.409Z,1.50
2023-02-18T12:44:07.517Z,1.40
2023-02-18T12:46:56.625Z,1.10
2023-02-18T12:49:44.096Z,1.50
2023-02-18T12:53:10.438Z,1.20
2023-02-18T12:56:03.910Z,1.50
2023-02-18T12:58:39.432Z,1.20
2023-02-18T13:01:24.609Z,1.50
2023-02-18T13:04:00.325Z,1.20
2023-02-18T13:06:45.268Z,1.70
2023-02-18T13:09:26.922Z,1.40
2023-02-18T13:11:59.195Z,1.40
2023-02-18T13:14:46.128Z,1.10
2023-02-18T13:29:55.269Z,1.70
2023-02-18T13:32:35.596Z,1.40
2023-02-18T13:35:17.207Z,1.40
2023-02-18T13:37:49.340Z,1.00
2023-02-18T13:40:26.950Z,1.80
2023-02-18T13:42:53.989Z,2.10
2023-02-18T13:45:31.136Z,1.40
2023-02-18T13:47:58.815Z,1.40
2023-02-18T13:50:31.594Z,1.60
2023-02-18T13:53:03.974Z,1.50
2023-02-18T13:56:04.542Z,1.10
2023-02-18T14:01:17.639Z,1.40
2023-02-18T14:03:44.435Z,1.40
2023-02-18T14:06:23.164Z,1.30
2023-02-18T14:08:50.799Z,1.10
2023-02-18T14:11:17.152Z,1.40
2023-02-18T14:14:08.453Z,1.70
2023-02-18T14:17:13.217Z,1.10
2023-02-18T14:19:40.133Z,1.60
2023-02-18T14:22:25.453Z,1.50
2023-02-18T14:25:00.496Z,1.90
2023-02-18T14:27:26.904Z,1.40
2023-02-18T14:29:53.725Z,1.10
2023-02-18T14:32:21.016Z,1.30
2023-02-18T14:35:07.974Z,0.80
2023-02-18T14:38:02.515Z,1.10
2023-02-18T14:40:55.144Z,1.20
2023-02-18T14:43:43.006Z,1.70
2023-02-18T14:46:38.303Z,1.10
2023-02-18T14:49:16.412Z,0.80
2023-02-18T14:51:47.320Z,0.80
2023-02-18T14:54:17.911Z,1.00
2023-02-18T14:57:07.466Z,0.70
2023-02-18T14:59:39.148Z,0.90
2023-02-18T15:02:21.298Z,0.80
2023-02-18T15:04:49.927Z,0.70
2023-02-18T15:07:19.855Z,0.80
2023-02-18T15:09:52.983Z,0.80
2023-02-18T15:12:25.465Z,1.00
2023-02-18T15:14:53.927Z,0.60
2023-02-18T15:17:26.835Z,1.00
2023-02-18T15:19:56.522Z,1.20
2023-02-18T15:22:25.613Z,1.30
2023-02-18T15:24:54.558Z,1.20
2023-02-18T15:27:27.703Z,1.30
2023-02-18T15:30:18.721Z,0.90
2023-02-18T15:32:50.946Z,1.60
2023-02-18T15:35:20.368Z,1.00
2023-02-18T15:37:52.255Z,1.40
2023-02-18T15:40:21.928Z,1.40
2023-02-18T15:42:55.276Z,1.40
2023-02-18T15:45:25.530Z,1.60
2023-02-18T15:47:56.595Z,1.60
2023-02-18T15:50:37.028Z,1.30
2023-02-18T15:53:13.799Z,1.10
2023-02-18T15:55:46.710Z,1.90
2023-02-18T15:58:20.940Z,1.60
2023-02-18T16:00:56.812Z,2.10
2023-02-18T16:03:24.580Z,0.80
2023-02-18T16:06:07.660Z,0.70
2023-02-18T16:08:34.238Z,1.30
2023-02-18T16:11:04.202Z,1.20
2023-02-18T16:13:31.933Z,1.40
2023-02-18T16:16:00.998Z,1.60
2023-02-18T16:18:30.167Z,1.30
2023-02-18T16:21:18.242Z,1.40
2023-02-18T16:23:58.673Z,1.50
2023-02-18T16:26:41.147Z,2.00
2023-02-18T16:29:13.874Z,1.80
2023-02-18T16:31:41.716Z,1.80
2023-02-18T16:34:08.350Z,2.00
2023-02-18T16:36:34.886Z,1.80
2023-02-18T16:39:01.529Z,2.20
2023-02-18T16:41:28.681Z,1.60
2023-02-18T16:43:55.206Z,2.90
2023-02-18T16:46:23.141Z,3.10
2023-02-18T16:48:54.155Z,2.80
2023-02-18T16:51:25.870Z,3.00
2023-02-18T16:53:52.282Z,2.50
2023-02-18T16:56:24.833Z,2.60
2023-02-18T16:58:51.609Z,2.70
2023-02-18T17:01:44.064Z,2.90
2023-02-18T17:04:13.246Z,2.60
2023-02-18T17:06:44.341Z,2.50
2023-02-18T17:09:16.247Z,2.30
2023-02-18T17:11:44.674Z,2.10
2023-02-18T17:14:17.496Z,2.50
2023-02-18T17:16:45.355Z,2.50
2023-02-18T17:19:11.808Z,2.80
2023-02-18T17:21:38.480Z,2.20
2023-02-18T17:24:05.162Z,2.70
2023-02-18T17:42:35.417Z,1.80
2023-02-18T17:45:17.457Z,2.20
2023-02-18T17:50:13.415Z,1.90
2023-02-18T17:52:41.527Z,2.60
2023-02-18T17:55:19.134Z,2.60
2023-02-18T17:57:47.620Z,2.30
2023-02-18T18:00:37.096Z,2.20
2023-02-18T18:03:05.555Z,3.10
2023-02-18T18:05:39.844Z,2.50
2023-02-18T18:08:08.736Z,3.00
2023-02-18T18:10:41.549Z,2.30
2023-02-18T18:13:17.945Z,3.20
2023-02-18T18:15:46.067Z,2.70
2023-02-18T18:18:14.857Z,2.80
2023-02-18T18:20:52.865Z,3.10
2023-02-18T18:23:25.177Z,3.30
2023-02-18T18:25:57.789Z,2.80
2023-02-18T18:28:26.817Z,3.00
2023-02-18T18:30:56.107Z,3.30
2023-02-18T18:33:27.543Z,3.50
2023-02-18T18:35:56.643Z,3.00
2023-02-18T18:38:26.860Z,3.00
2023-02-18T18:40:55.632Z,3.00
2023-02-18T18:43:32.574Z,2.80
2023-02-18T18:46:00.751Z,3.30
2023-02-18T18:48:28.724Z,2.70
2023-02-18T18:50:58.213Z,3.10
2023-02-18T18:53:29.808Z,3.80
2023-02-18T18:56:00.678Z,3.40
2023-02-18T18:58:28.437Z,3.00
2023-02-18T19:01:00.176Z,3.80
2023-02-18T19:03:29.441Z,4.60
2023-02-18T19:05:58.061Z,3.10
2023-02-18T19:08:26.049Z,3.10
2023-02-18T19:10:55.877Z,2.90
2023-02-18T19:13:32.025Z,2.90
2023-02-18T19:19:31.430Z,2.00
2023-02-18T19:21:59.100Z,2.50
2023-02-18T19:24:26.796Z,2.30
2023-02-18T19:26:54.551Z,3.00
2023-02-18T19:29:23.604Z,2.10
2023-02-18T19:31:51.644Z,2.90
2023-02-18T19:34:19.787Z,3.00
2023-02-18T19:36:48.206Z,3.20
2023-02-18T19:39:16.017Z,2.10
2023-02-18T19:41:44.024Z,2.70
2023-02-18T19:44:11.868Z,3.10
2023-02-18T19:46:39.673Z,3.20
2023-02-18T19:49:08.423Z,3.10
2023-02-18T19:51:36.320Z,1.90
2023-02-18T19:54:04.118Z,2.20
2023-02-18T19:56:31.846Z,1.80
2023-02-18T19:58:59.564Z,2.40
2023-02-18T20:01:27.508Z,2.60
2023-02-18T20:03:55.332Z,2.60
2023-02-18T20:06:23.815Z,2.90
2023-02-18T20:08:52.910Z,2.10
2023-02-18T20:11:23.079Z,2.00
2023-02-18T20:13:50.793Z,2.10
2023-02-18T20:16:18.747Z,2.70
2023-02-18T20:18:46.510Z,2.60
2023-02-18T20:21:14.351Z,3.10
2023-02-18T20:23:42.339Z,2.10
2023-02-18T20:26:11.749Z,3.40
2023-02-18T20:28:39.527Z,2.50
2023-02-18T20:31:11.171Z,2.30
2023-02-18T20:33:39.975Z,2.70
2023-02-18T20:36:08.664Z,3.00
2023-02-18T20:38:37.459Z,2.80
2023-02-18T20:41:05.402Z,2.80
2023-02-18T20:43:33.335Z,2.40
2023-02-18T20:46:07.273Z,3.70
2023-02-18T20:48:36.882Z,3.00
2023-02-18T20:51:13.564Z,2.80
2023-02-18T20:53:43.195Z,4.10
2023-02-18T20:56:10.948Z,2.80
2023-02-18T20:58:39.761Z,3.00
2023-02-18T21:01:11.221Z,2.90
2023-02-18T21:03:39.581Z,3.30
2023-02-18T21:06:10.123Z,4.30
2023-02-18T21:08:40.495Z,3.40
2023-02-18T21:11:12.202Z,2.80
2023-02-18T21:13:40.397Z,3.70
2023-02-18T21:16:09.861Z,2.50
2023-02-18T21:18:37.700Z,2.30
2023-02-18T21:21:08.359Z,4.00
2023-02-18T21:23:37.443Z,3.70
2023-02-18T21:26:11.172Z,3.80
2023-02-18T21:28:39.976Z,3.70
2023-02-18T21:31:20.224Z,2.20
2023-02-18T21:33:48.957Z,2.90
2023-02-18T21:36:19.027Z,2.70
2023-02-18T21:38:59.376Z,2.70
2023-02-18T21:41:29.902Z,3.10
2023-02-18T21:43:58.729Z,3.70
2023-02-18T21:46:29.493Z,3.00
2023-02-18T21:49:03.456Z,3.60
2023-02-18T21:51:57.211Z,3.60
2023-02-18T21:54:28.419Z,2.80
2023-02-18T21:56:57.301Z,3.00
2023-02-18T21:59:29.258Z,3.50
2023-02-18T22:02:01.287Z,3.50
2023-02-18T22:04:34.040Z,2.80
2023-02-18T22:07:04.394Z,2.00
2023-02-18T22:09:32.131Z,3.60
2023-02-18T22:11:59.942Z,4.00
2023-02-18T22:14:28.280Z,3.40
2023-02-18T22:16:56.434Z,3.60
2023-02-18T22:19:24.733Z,3.40
2023-02-18T22:21:52.551Z,3.80
2023-02-18T22:24:20.283Z,3.30
2023-02-18T22:26:48.928Z,4.30
2023-02-18T22:29:18.488Z,3.40
2023-02-18T22:31:47.280Z,3.80
2023-02-18T22:34:16.201Z,4.10
2023-02-18T22:36:43.859Z,4.20
2023-02-18T22:39:12.610Z,3.70
2023-02-18T22:41:40.269Z,3.60
2023-02-18T22:44:11.970Z,3.90
2023-02-18T22:46:39.925Z,3.20
2023-02-18T22:49:08.326Z,3.80
2023-02-18T22:51:39.153Z,4.60
2023-02-18T22:54:11.147Z,3.90
2023-02-18T22:56:39.221Z,4.40
2023-02-18T22:59:11.265Z,3.60
2023-02-18T23:01:41.257Z,4.60
2023-02-18T23:04:11.750Z,2.20
2023-02-18T23:06:43.390Z,3.60
2023-02-18T23:09:21.876Z,3.00
2023-02-18T23:11:53.149Z,3.30
2023-02-18T23:14:21.875Z,3.20
2023-02-18T23:17:13.562Z,3.00
2023-02-18T23:19:46.882Z,3.30
2023-02-18T23:22:18.757Z,3.00
2023-02-18T23:24:50.053Z,3.20
2023-02-18T23:27:17.884Z,2.80
2023-02-18T23:29:45.771Z,2.90
2023-02-18T23:32:14.061Z,2.30
2023-02-18T23:34:41.827Z,3.30
2023-02-18T23:37:11.395Z,3.40
2023-02-18T23:39:39.961Z,2.50
2023-02-18T23:42:08.768Z,2.80
2023-02-18T23:44:36.726Z,3.60
2023-02-18T23:47:04.579Z,3.80
2023-02-18T23:49:32.269Z,3.40
2023-02-18T23:52:00.348Z,2.60
2023-02-18T23:54:28.174Z,2.70
2023-02-18T23:56:55.931Z,3.10
2023-02-18T23:59:24.503Z,3.40
